This is the latest recevied weather packets stored in our database for station/object BMCB-34. If no packets are shown the sender has not sent any weather packets the latest 10 day(s).
| Time | Temp. | Humidity | Pressure | Rain* | Wind** | Luminosity | Snow |
|---|---|---|---|---|---|---|---|
| 1777345224 | 10.56° C | 62% | 1012 hPa | 0 mm | - | 0 W/m² | - |
| 1777342828 | 10.56° C | 62% | 1012.2 hPa | 0 mm | - | 0 W/m² | - |
| 1777333829 | 12.22° C | 61% | 1012.9 hPa | 0 mm | - | 0 W/m² | - |
| 1777333225 | 11.67° C | 61% | 1012.9 hPa | 0 mm | - | 0 W/m² | - |
| 1777332635 | 11.67° C | 61% | 1012.9 hPa | 0 mm | - | 0 W/m² | - |
| 1777331426 | 11.67° C | 63% | 1012.9 hPa | 0 mm | - | 0 W/m² | - |
| 1777327234 | 12.22° C | 61% | 1013.1 hPa | 0 mm | - | 0 W/m² | - |
| 1777326632 | 12.22° C | 61% | 1013.1 hPa | 0 mm | - | 0 W/m² | - |
| 1777326031 | 12.78° C | 60% | 1013 hPa | 0 mm | - | 0 W/m² | - |
| 1777322444 | 13.33° C | 63% | 1013 hPa | 0 mm | - | 0 W/m² | - |
| 1777322437 | 13.89° C | 62% | 1013 hPa | 0 mm | - | 0 W/m² | - |
| 1777321235 | 13.89° C | 61% | 1013.1 hPa | 0 mm | - | 0 W/m² | - |
| 1777321228 | 14.44° C | 60% | 1013.1 hPa | 0 mm | - | 0 W/m² | - |
| 1777320037 | 14.44° C | 60% | 1013.1 hPa | 0 mm | - | 0 W/m² | - |
| 1777318830 | 15° C | 58% | 1013 hPa | 0 mm | - | 0 W/m² | - |
| 1777318240 | 15° C | 58% | 1013 hPa | 0 mm | - | 0 W/m² | - |
| 1777318232 | 15.56° C | 56% | 1013 hPa | 0 mm | - | 0 W/m² | - |
| 1777317040 | 16.11° C | 54% | 1012.9 hPa | 0 mm | - | 0 W/m² | - |
| 1777314634 | 17.22° C | 49% | 1012.8 hPa | 0 mm | - | 18 W/m² | - |
| 1777311632 | 19.44° C | 40% | 1013 hPa | 0 mm | - | 82 W/m² | - |
| 1777307431 | 20.56° C | 34% | 1013.2 hPa | 0 mm | - | 332 W/m² | - |
| 1777305035 | 20.56° C | 34% | 1013.5 hPa | 0 mm | - | 320 W/m² | - |
| 1777304444 | 20° C | 35% | 1013.6 hPa | 0 mm | - | 304 W/m² | - |
| 1777303237 | 20.56° C | 34% | 1013.6 hPa | 0 mm | - | 290 W/m² | - |
| 1777302633 | 21.11° C | 33% | 1013.8 hPa | 0 mm | - | 506 W/m² | - |
* Rain latest hour (hover to see other rain measurements)
** Current wind speed in m/s (hover to see current wind gust speed)